createdAt,value
2023-03-27T00:01:18.330Z,100.00
2023-03-27T00:04:21.602Z,100.00
2023-03-27T00:07:26.392Z,100.00
2023-03-27T00:10:31.024Z,100.00
2023-03-27T00:13:34.488Z,100.00
2023-03-27T00:16:38.063Z,100.00
2023-03-27T00:19:41.167Z,100.00
2023-03-27T00:22:45.870Z,100.00
2023-03-27T00:25:52.584Z,100.00
2023-03-27T00:28:55.726Z,100.00
2023-03-27T00:31:58.700Z,100.00
2023-03-27T00:35:01.805Z,100.00
2023-03-27T00:38:07.704Z,100.00
2023-03-27T00:41:10.916Z,100.00
2023-03-27T00:44:31.146Z,100.00
2023-03-27T00:47:39.767Z,100.00
2023-03-27T00:50:46.656Z,100.00
2023-03-27T00:53:52.644Z,100.00
2023-03-27T00:56:59.052Z,100.00
2023-03-27T01:00:09.477Z,100.00
2023-03-27T01:03:14.268Z,100.00
2023-03-27T01:06:18.804Z,100.00
2023-03-27T01:09:27.067Z,100.00
2023-03-27T01:12:38.965Z,100.00
2023-03-27T01:15:54.507Z,100.00
2023-03-27T01:19:29.130Z,100.00
2023-03-27T01:23:03.823Z,100.00
2023-03-27T01:26:40.057Z,100.00
2023-03-27T01:30:00.811Z,100.00
2023-03-27T01:34:03.542Z,100.00
2023-03-27T01:37:52.969Z,100.00
2023-03-27T01:41:02.525Z,100.00
2023-03-27T01:44:14.214Z,100.00
2023-03-27T01:47:28.957Z,100.00
2023-03-27T01:50:39.968Z,100.00
2023-03-27T01:53:48.160Z,100.00
2023-03-27T01:57:02.527Z,100.00
2023-03-27T02:00:19.421Z,100.00
2023-03-27T02:03:28.210Z,100.00
2023-03-27T02:06:34.345Z,100.00
2023-03-27T02:09:42.020Z,100.00
2023-03-27T02:12:50.259Z,100.00
2023-03-27T02:15:54.739Z,100.00
2023-03-27T02:19:03.068Z,100.00
2023-03-27T02:22:07.896Z,100.00
2023-03-27T02:25:31.700Z,100.00
2023-03-27T02:28:58.282Z,100.00
2023-03-27T02:32:14.299Z,100.00
2023-03-27T02:35:29.470Z,100.00
2023-03-27T02:38:41.766Z,100.00
2023-03-27T02:41:51.968Z,100.00
2023-03-27T02:45:17.398Z,100.00
2023-03-27T02:48:29.473Z,100.00
2023-03-27T02:51:43.717Z,100.00
2023-03-27T02:54:54.400Z,100.00
2023-03-27T02:58:02.258Z,100.00
2023-03-27T03:01:27.600Z,100.00
2023-03-27T03:04:47.843Z,100.00
2023-03-27T03:07:58.244Z,100.00
2023-03-27T03:11:04.577Z,100.00
2023-03-27T03:14:07.553Z,100.00
2023-03-27T03:17:12.047Z,100.00
2023-03-27T03:20:17.042Z,100.00
2023-03-27T03:23:20.013Z,100.00
2023-03-27T03:26:23.191Z,100.00
2023-03-27T03:29:35.525Z,100.00
2023-03-27T03:33:03.278Z,100.00
2023-03-27T03:36:07.517Z,100.00
2023-03-27T03:39:13.043Z,100.00
2023-03-27T03:42:22.456Z,100.00
2023-03-27T03:45:27.780Z,100.00
2023-03-27T03:48:32.144Z,100.00
2023-03-27T03:51:36.302Z,100.00
2023-03-27T03:54:40.408Z,100.00
2023-03-27T03:57:48.269Z,100.00
2023-03-27T04:00:58.547Z,100.00
2023-03-27T04:04:12.774Z,100.00
2023-03-27T04:07:36.119Z,100.00
2023-03-27T04:10:57.400Z,100.00
2023-03-27T04:14:36.347Z,100.00
2023-03-27T04:17:48.805Z,100.00
2023-03-27T04:20:54.428Z,100.00
2023-03-27T04:24:02.662Z,100.00
2023-03-27T04:27:19.209Z,100.00
2023-03-27T04:30:38.694Z,100.00
2023-03-27T04:33:51.873Z,100.00
2023-03-27T04:37:18.423Z,100.00
2023-03-27T04:40:38.944Z,100.00
2023-03-27T04:43:42.166Z,100.00
2023-03-27T04:46:45.482Z,100.00
2023-03-27T04:49:50.832Z,100.00
2023-03-27T04:53:02.025Z,100.00
2023-03-27T04:56:12.436Z,100.00
2023-03-27T04:59:18.465Z,100.00
2023-03-27T05:02:34.394Z,100.00
2023-03-27T05:05:50.482Z,100.00
2023-03-27T05:08:55.007Z,100.00
2023-03-27T05:12:06.751Z,100.00
2023-03-27T05:15:18.090Z,100.00
2023-03-27T05:18:22.312Z,100.00
2023-03-27T05:21:27.321Z,100.00
2023-03-27T05:24:33.341Z,100.00
2023-03-27T05:27:36.489Z,100.00
2023-03-27T05:30:42.151Z,100.00
2023-03-27T05:33:51.652Z,100.00
2023-03-27T05:36:57.864Z,100.00
2023-03-27T05:40:05.936Z,100.00
2023-03-27T05:43:09.201Z,100.00
2023-03-27T05:46:13.722Z,100.00
2023-03-27T05:49:28.781Z,100.00
2023-03-27T05:52:40.911Z,100.00
2023-03-27T05:55:45.858Z,100.00
2023-03-27T05:58:48.820Z,100.00
2023-03-27T06:01:52.758Z,100.00
2023-03-27T06:05:01.262Z,100.00
2023-03-27T06:08:11.613Z,100.00
2023-03-27T06:11:19.115Z,100.00
2023-03-27T06:14:23.858Z,100.00
2023-03-27T06:17:48.433Z,100.00
2023-03-27T06:20:52.959Z,100.00
2023-03-27T06:23:56.845Z,100.00
2023-03-27T06:27:01.128Z,100.00
2023-03-27T06:30:11.111Z,100.00
2023-03-27T06:33:16.868Z,100.00
2023-03-27T06:36:20.574Z,100.00
2023-03-27T06:39:27.268Z,100.00
2023-03-27T06:42:36.925Z,100.00
2023-03-27T06:46:00.088Z,100.00
2023-03-27T06:49:38.087Z,100.00
2023-03-27T06:52:54.508Z,100.00
2023-03-27T06:56:14.805Z,100.00
2023-03-27T06:59:48.855Z,100.00
2023-03-27T07:02:58.005Z,100.00
2023-03-27T07:06:20.948Z,100.00
2023-03-27T07:09:30.476Z,100.00
2023-03-27T07:12:40.533Z,100.00
2023-03-27T07:15:45.435Z,100.00
2023-03-27T07:18:48.435Z,100.00
2023-03-27T07:21:51.405Z,100.00
2023-03-27T07:24:54.358Z,100.00
2023-03-27T07:28:00.483Z,100.00
2023-03-27T07:31:25.964Z,100.00
2023-03-27T07:34:35.237Z,100.00
2023-03-27T07:37:55.016Z,100.00
2023-03-27T07:41:13.728Z,100.00
2023-03-27T07:44:37.195Z,100.00
2023-03-27T07:47:45.994Z,100.00
2023-03-27T07:50:49.008Z,100.00
2023-03-27T07:53:58.347Z,100.00
2023-03-27T07:57:07.476Z,100.00
2023-03-27T08:00:32.564Z,100.00
2023-03-27T08:03:47.298Z,100.00
2023-03-27T08:06:54.671Z,100.00
2023-03-27T08:09:59.912Z,100.00
2023-03-27T08:13:03.936Z,100.00
2023-03-27T08:16:10.416Z,100.00
2023-03-27T08:19:19.595Z,100.00
2023-03-27T08:22:27.291Z,100.00
2023-03-27T08:25:53.147Z,100.00
2023-03-27T08:29:00.367Z,100.00
2023-03-27T08:32:09.531Z,100.00
2023-03-27T08:35:14.440Z,100.00
2023-03-27T08:38:25.982Z,100.00
2023-03-27T08:41:55.104Z,100.00
2023-03-27T08:45:20.922Z,100.00
2023-03-27T08:48:33.581Z,100.00
2023-03-27T08:51:47.023Z,100.00
2023-03-27T08:54:58.293Z,100.00
2023-03-27T08:58:20.188Z,100.00
2023-03-27T09:01:31.154Z,100.00
2023-03-27T09:04:49.384Z,100.00
2023-03-27T09:08:05.143Z,100.00
2023-03-27T09:11:25.077Z,100.00
2023-03-27T09:14:38.650Z,100.00
2023-03-27T09:17:49.256Z,100.00
2023-03-27T09:20:56.680Z,100.00
2023-03-27T09:24:08.585Z,100.00
2023-03-27T09:27:32.635Z,100.00
2023-03-27T09:31:01.873Z,100.00
2023-03-27T09:34:16.685Z,100.00
2023-03-27T09:37:22.003Z,100.00
2023-03-27T09:40:33.895Z,100.00
2023-03-27T09:43:43.370Z,100.00
2023-03-27T09:46:49.140Z,100.00
2023-03-27T09:49:57.544Z,100.00
2023-03-27T09:53:19.012Z,100.00
2023-03-27T09:56:51.759Z,100.00
2023-03-27T09:59:59.543Z,100.00
2023-03-27T10:03:08.749Z,100.00
2023-03-27T10:06:26.080Z,99.46
2023-03-27T10:09:41.022Z,97.14
2023-03-27T10:12:53.085Z,96.28
2023-03-27T10:16:01.976Z,88.46
2023-03-27T10:19:24.242Z,87.48
2023-03-27T10:22:30.807Z,88.04
2023-03-27T10:25:38.046Z,86.13
2023-03-27T10:29:16.559Z,79.83
2023-03-27T10:32:49.505Z,84.72
2023-03-27T10:36:12.561Z,89.90
2023-03-27T10:39:17.081Z,85.06
2023-03-27T10:42:57.079Z,82.54
2023-03-27T10:46:04.962Z,85.18
2023-03-27T10:49:24.321Z,79.05
2023-03-27T10:52:38.210Z,75.84
2023-03-27T10:56:02.412Z,79.54
2023-03-27T10:59:23.276Z,79.83
2023-03-27T11:02:38.532Z,74.19
2023-03-27T11:05:46.626Z,77.52
2023-03-27T11:09:06.125Z,84.60
2023-03-27T11:12:15.553Z,78.64
2023-03-27T11:15:31.796Z,77.84
2023-03-27T11:18:40.234Z,71.27
2023-03-27T11:21:49.520Z,67.73
2023-03-27T11:25:06.513Z,75.11
2023-03-27T11:28:21.002Z,69.90
2023-03-27T11:31:38.276Z,64.65
2023-03-27T11:34:49.056Z,62.32
2023-03-27T11:38:19.161Z,60.67
2023-03-27T11:41:26.932Z,59.37
2023-03-27T11:44:30.644Z,58.73
2023-03-27T11:48:10.686Z,58.28
2023-03-27T11:51:29.745Z,60.23
2023-03-27T11:54:58.728Z,60.91
2023-03-27T11:58:20.669Z,59.06
2023-03-27T12:01:28.931Z,60.29
2023-03-27T12:04:49.469Z,60.84
2023-03-27T12:08:19.643Z,62.68
2023-03-27T12:11:27.974Z,61.62
2023-03-27T12:14:49.997Z,62.29
2023-03-27T12:18:03.882Z,60.02
2023-03-27T12:21:18.053Z,63.91
2023-03-27T12:24:59.056Z,64.42
2023-03-27T12:28:44.736Z,59.36
2023-03-27T12:32:19.601Z,62.58
2023-03-27T12:35:28.287Z,58.85
2023-03-27T12:38:37.571Z,61.34
2023-03-27T12:41:46.260Z,61.59
2023-03-27T12:45:15.919Z,59.82
2023-03-27T12:48:30.316Z,58.55
2023-03-27T12:51:43.297Z,57.83
2023-03-27T12:55:31.116Z,62.37
2023-03-27T12:58:38.499Z,58.79
2023-03-27T13:02:51.189Z,63.70
2023-03-27T13:06:17.181Z,67.33
2023-03-27T13:09:37.198Z,65.60
2023-03-27T13:13:07.184Z,68.17
2023-03-27T13:16:33.533Z,71.92
2023-03-27T13:19:54.701Z,83.52
2023-03-27T13:23:22.249Z,90.45
2023-03-27T13:26:49.002Z,97.65
2023-03-27T13:29:54.141Z,100.00
2023-03-27T13:33:17.387Z,100.00
2023-03-27T13:36:24.725Z,100.00
2023-03-27T13:39:41.194Z,96.78
2023-03-27T13:42:47.696Z,97.16
2023-03-27T13:46:01.343Z,99.77
2023-03-27T13:50:00.696Z,100.00
2023-03-27T13:53:28.467Z,100.00
2023-03-27T13:56:54.586Z,100.00
2023-03-27T14:00:48.912Z,100.00
2023-03-27T14:04:29.512Z,100.00
2023-03-27T14:08:05.724Z,100.00
2023-03-27T14:11:46.090Z,100.00
2023-03-27T14:15:38.907Z,99.39
2023-03-27T14:19:32.592Z,96.80
2023-03-27T14:22:44.954Z,87.22
2023-03-27T14:25:57.873Z,83.81
2023-03-27T14:29:08.500Z,81.60
2023-03-27T14:32:18.352Z,85.92
2023-03-27T14:35:35.960Z,88.29
2023-03-27T14:38:41.552Z,84.03
2023-03-27T14:41:55.563Z,82.30
2023-03-27T14:45:20.728Z,81.47
2023-03-27T14:48:30.274Z,80.87
2023-03-27T14:51:42.127Z,81.38
2023-03-27T14:54:55.552Z,80.10
2023-03-27T14:58:11.497Z,75.70
2023-03-27T15:01:21.931Z,75.59
2023-03-27T15:04:31.545Z,77.81
2023-03-27T15:07:38.168Z,79.44
2023-03-27T15:10:52.195Z,80.81
2023-03-27T15:14:18.405Z,82.50
2023-03-27T15:17:23.632Z,80.06
2023-03-27T15:20:31.793Z,83.90
2023-03-27T15:23:41.478Z,84.82
2023-03-27T15:26:44.953Z,83.77
2023-03-27T15:29:53.376Z,82.10
2023-03-27T15:33:01.919Z,83.76
2023-03-27T15:36:10.117Z,84.19
2023-03-27T15:39:22.205Z,90.69
2023-03-27T15:42:25.176Z,92.18
2023-03-27T15:45:39.819Z,94.73
2023-03-27T15:48:46.011Z,93.24
2023-03-27T15:51:49.137Z,92.20
2023-03-27T15:54:57.070Z,90.90
2023-03-27T15:58:01.936Z,92.72
2023-03-27T16:01:18.439Z,93.75
2023-03-27T16:04:28.988Z,95.25
2023-03-27T16:07:45.098Z,95.15
2023-03-27T16:10:48.953Z,98.16
2023-03-27T16:13:56.707Z,100.00
2023-03-27T16:17:24.815Z,100.00
2023-03-27T16:20:40.098Z,100.00
2023-03-27T16:23:44.255Z,100.00
2023-03-27T16:26:47.763Z,100.00
2023-03-27T16:29:51.453Z,100.00
2023-03-27T16:33:01.951Z,100.00
2023-03-27T16:36:10.137Z,100.00
2023-03-27T16:39:23.571Z,100.00
2023-03-27T16:42:27.169Z,100.00
2023-03-27T16:45:32.172Z,100.00
2023-03-27T16:48:38.034Z,100.00
2023-03-27T16:51:44.565Z,100.00
2023-03-27T16:54:51.439Z,100.00
2023-03-27T16:57:55.151Z,100.00
2023-03-27T17:00:59.171Z,100.00
2023-03-27T17:04:02.231Z,100.00
2023-03-27T17:07:11.682Z,100.00
2023-03-27T17:10:15.456Z,100.00
2023-03-27T17:13:31.848Z,100.00
2023-03-27T17:16:37.555Z,100.00
2023-03-27T17:19:40.817Z,100.00
2023-03-27T17:22:45.559Z,100.00
2023-03-27T17:25:49.020Z,100.00
2023-03-27T17:28:53.365Z,100.00
2023-03-27T17:32:00.840Z,100.00
2023-03-27T17:35:05.056Z,100.00
2023-03-27T17:38:10.435Z,100.00
2023-03-27T17:41:14.606Z,100.00
2023-03-27T17:44:18.514Z,100.00
2023-03-27T17:47:21.702Z,100.00
2023-03-27T17:50:25.562Z,100.00
2023-03-27T17:53:30.263Z,100.00
2023-03-27T17:56:33.787Z,100.00
2023-03-27T17:59:38.790Z,100.00
2023-03-27T18:02:45.063Z,100.00
2023-03-27T18:05:48.236Z,100.00
2023-03-27T18:08:52.557Z,100.00
2023-03-27T18:11:57.979Z,100.00
2023-03-27T18:15:09.592Z,100.00
2023-03-27T18:18:13.169Z,100.00
2023-03-27T18:21:19.567Z,100.00
2023-03-27T18:24:25.571Z,100.00
2023-03-27T18:27:28.629Z,100.00
2023-03-27T18:30:32.385Z,100.00
2023-03-27T18:33:38.693Z,100.00
2023-03-27T18:36:42.449Z,100.00
2023-03-27T18:39:46.975Z,100.00
2023-03-27T18:42:50.521Z,100.00
2023-03-27T18:45:58.008Z,100.00
2023-03-27T18:49:13.507Z,100.00
2023-03-27T18:52:20.901Z,100.00
2023-03-27T18:55:27.066Z,100.00
2023-03-27T18:58:30.704Z,100.00
2023-03-27T19:01:34.923Z,100.00
2023-03-27T19:04:37.983Z,100.00
2023-03-27T19:07:44.397Z,100.00
2023-03-27T19:10:49.685Z,100.00
2023-03-27T19:14:18.686Z,100.00
2023-03-27T19:17:50.666Z,100.00
2023-03-27T19:21:13.114Z,100.00
2023-03-27T19:24:23.570Z,100.00
2023-03-27T19:27:38.605Z,100.00
2023-03-27T19:30:42.916Z,100.00
2023-03-27T19:33:46.176Z,100.00
2023-03-27T19:36:52.316Z,100.00
2023-03-27T19:39:55.660Z,100.00
2023-03-27T19:42:59.968Z,100.00
2023-03-27T19:46:14.766Z,100.00
2023-03-27T19:49:19.866Z,100.00
2023-03-27T19:52:34.459Z,100.00
2023-03-27T19:55:37.920Z,100.00
2023-03-27T19:58:42.282Z,100.00
2023-03-27T20:01:45.370Z,100.00
2023-03-27T20:04:48.429Z,100.00
2023-03-27T20:07:54.574Z,100.00
2023-03-27T20:10:57.737Z,100.00
2023-03-27T20:14:02.342Z,100.00
2023-03-27T20:17:12.244Z,100.00
2023-03-27T20:20:26.080Z,100.00
2023-03-27T20:23:31.808Z,100.00
2023-03-27T20:26:39.661Z,100.00
2023-03-27T20:29:49.912Z,100.00
2023-03-27T20:32:53.231Z,100.00
2023-03-27T20:35:56.488Z,100.00
2023-03-27T20:38:59.668Z,100.00
2023-03-27T20:42:03.725Z,100.00
2023-03-27T20:45:16.355Z,100.00
2023-03-27T20:48:21.857Z,100.00
2023-03-27T20:51:27.677Z,100.00
2023-03-27T20:54:35.887Z,100.00
2023-03-27T20:57:42.876Z,100.00
2023-03-27T21:00:48.796Z,100.00
2023-03-27T21:03:53.677Z,100.00
2023-03-27T21:06:57.729Z,100.00
2023-03-27T21:10:00.866Z,100.00
2023-03-27T21:13:04.387Z,100.00
2023-03-27T21:16:09.859Z,100.00
2023-03-27T21:19:13.191Z,100.00
2023-03-27T21:22:17.104Z,100.00
2023-03-27T21:25:20.824Z,100.00
2023-03-27T21:28:27.562Z,100.00
2023-03-27T21:31:32.234Z,100.00
2023-03-27T21:34:35.813Z,100.00
2023-03-27T21:37:38.992Z,100.00
2023-03-27T21:40:42.208Z,100.00
2023-03-27T21:43:45.528Z,100.00
2023-03-27T21:46:49.801Z,100.00
2023-03-27T21:49:52.761Z,100.00
2023-03-27T21:52:55.782Z,100.00
2023-03-27T21:55:59.118Z,100.00
2023-03-27T21:59:02.313Z,100.00
2023-03-27T22:02:06.717Z,100.00
2023-03-27T22:05:10.368Z,100.00
2023-03-27T22:08:17.183Z,100.00
2023-03-27T22:11:20.778Z,100.00
2023-03-27T22:14:26.514Z,100.00
2023-03-27T22:17:31.139Z,100.00
2023-03-27T22:20:34.621Z,100.00
2023-03-27T22:23:39.590Z,100.00
2023-03-27T22:26:45.202Z,100.00
2023-03-27T22:29:50.704Z,100.00
2023-03-27T22:32:56.306Z,100.00
2023-03-27T22:35:59.599Z,100.00
2023-03-27T22:39:03.848Z,100.00
2023-03-27T22:42:09.109Z,100.00
2023-03-27T22:45:12.754Z,100.00
2023-03-27T22:48:17.598Z,100.00
2023-03-27T22:51:23.174Z,100.00
2023-03-27T22:54:26.352Z,100.00
2023-03-27T22:57:30.296Z,100.00
2023-03-27T23:00:33.388Z,100.00
2023-03-27T23:03:39.347Z,100.00
2023-03-27T23:06:42.491Z,100.00
2023-03-27T23:09:50.417Z,100.00
2023-03-27T23:12:58.747Z,100.00
2023-03-27T23:16:02.404Z,100.00
2023-03-27T23:19:07.048Z,100.00
2023-03-27T23:22:10.469Z,100.00
2023-03-27T23:25:16.265Z,100.00
2023-03-27T23:28:22.400Z,100.00
2023-03-27T23:31:28.412Z,100.00
2023-03-27T23:34:35.939Z,100.00
2023-03-27T23:37:39.118Z,100.00
2023-03-27T23:40:45.630Z,100.00
2023-03-27T23:43:49.272Z,100.00
2023-03-27T23:46:55.264Z,100.00
2023-03-27T23:49:59.610Z,100.00
2023-03-27T23:53:02.590Z,100.00
2023-03-27T23:56:09.049Z,100.00
2023-03-27T23:59:12.001Z,100.00
